sensor_id;sensor_type;location;lat;lon;timestamp;pressure;altitude;pressure_sealevel;temperature;humidity
76128;BME280;64873;50.102;14.434;2023-06-26T00:02:17;99434.84;;;18.72;70.59
76128;BME280;64873;50.102;14.434;2023-06-26T00:04:43;99435.09;;;18.71;70.54
76128;BME280;64873;50.102;14.434;2023-06-26T00:07:08;99435.34;;;18.69;70.55
76128;BME280;64873;50.102;14.434;2023-06-26T00:09:34;99425.22;;;18.44;71.55
76128;BME280;64873;50.102;14.434;2023-06-26T00:11:59;99439.88;;;18.58;71.27
76128;BME280;64873;50.102;14.434;2023-06-26T00:14:25;99431.44;;;18.45;71.51
76128;BME280;64873;50.102;14.434;2023-06-26T00:16:51;99438.47;;;18.35;71.66
76128;BME280;64873;50.102;14.434;2023-06-26T00:19:16;99437.47;;;18.62;70.70
76128;BME280;64873;50.102;14.434;2023-06-26T00:21:42;99426.63;;;18.57;70.69
76128;BME280;64873;50.102;14.434;2023-06-26T00:24:13;99433.09;;;18.51;70.84
76128;BME280;64873;50.102;14.434;2023-06-26T00:26:39;99437.41;;;18.47;71.20
76128;BME280;64873;50.102;14.434;2023-06-26T00:29:04;99439.28;;;18.36;71.68
76128;BME280;64873;50.102;14.434;2023-06-26T00:31:30;99431.28;;;18.09;72.63
76128;BME280;64873;50.102;14.434;2023-06-26T00:33:56;99429.66;;;18.08;72.81
76128;BME280;64873;50.102;14.434;2023-06-26T00:36:21;99438.84;;;18.07;73.12
76128;BME280;64873;50.102;14.434;2023-06-26T00:38:49;99436.75;;;18.19;72.51
76128;BME280;64873;50.102;14.434;2023-06-26T00:41:14;99437.81;;;18.23;72.71
76128;BME280;64873;50.102;14.434;2023-06-26T00:43:40;99432.38;;;18.13;73.03
76128;BME280;64873;50.102;14.434;2023-06-26T00:46:09;99433.44;;;18.07;73.33
76128;BME280;64873;50.102;14.434;2023-06-26T00:48:36;99439.94;;;18.11;73.35
76128;BME280;64873;50.102;14.434;2023-06-26T00:51:02;99430.31;;;17.88;73.98
76128;BME280;64873;50.102;14.434;2023-06-26T00:53:28;99435.72;;;17.88;73.86
76128;BME280;64873;50.102;14.434;2023-06-26T00:55:54;99429.16;;;17.74;74.55
76128;BME280;64873;50.102;14.434;2023-06-26T00:58:21;99430.03;;;17.84;74.46
76128;BME280;64873;50.102;14.434;2023-06-26T01:00:48;99426.34;;;17.96;73.70
76128;BME280;64873;50.102;14.434;2023-06-26T01:03:14;99430.94;;;17.95;73.80
76128;BME280;64873;50.102;14.434;2023-06-26T01:05:40;99432.78;;;17.90;74.24
76128;BME280;64873;50.102;14.434;2023-06-26T01:08:05;99432.41;;;17.76;74.52
76128;BME280;64873;50.102;14.434;2023-06-26T01:10:31;99428.00;;;17.70;74.77
76128;BME280;64873;50.102;14.434;2023-06-26T01:12:57;99432.94;;;17.73;74.67
76128;BME280;64873;50.102;14.434;2023-06-26T01:15:22;99433.13;;;17.66;74.96
76128;BME280;64873;50.102;14.434;2023-06-26T01:17:49;99424.97;;;17.61;75.22
76128;BME280;64873;50.102;14.434;2023-06-26T01:20:15;99421.78;;;17.69;74.84
76128;BME280;64873;50.102;14.434;2023-06-26T01:26:20;99419.16;;;17.74;74.83
76128;BME280;64873;50.102;14.434;2023-06-26T01:28:46;99421.59;;;17.76;74.59
76128;BME280;64873;50.102;14.434;2023-06-26T01:31:13;99419.84;;;17.65;75.15
76128;BME280;64873;50.102;14.434;2023-06-26T01:33:40;99412.84;;;17.64;75.33
76128;BME280;64873;50.102;14.434;2023-06-26T01:36:06;99418.00;;;17.70;74.71
76128;BME280;64873;50.102;14.434;2023-06-26T01:38:32;99412.00;;;17.63;75.09
76128;BME280;64873;50.102;14.434;2023-06-26T01:40:58;99408.53;;;17.68;74.92
76128;BME280;64873;50.102;14.434;2023-06-26T01:52:09;99403.44;;;17.71;74.76
76128;BME280;64873;50.102;14.434;2023-06-26T01:54:40;99406.03;;;17.56;75.13
76128;BME280;64873;50.102;14.434;2023-06-26T01:57:08;99399.53;;;17.57;74.79
76128;BME280;64873;50.102;14.434;2023-06-26T01:59:35;99404.41;;;17.55;74.93
76128;BME280;64873;50.102;14.434;2023-06-26T02:02:02;99399.00;;;17.55;74.86
76128;BME280;64873;50.102;14.434;2023-06-26T02:04:27;99408.69;;;17.51;74.87
76128;BME280;64873;50.102;14.434;2023-06-26T02:06:53;99395.13;;;17.46;75.27
76128;BME280;64873;50.102;14.434;2023-06-26T02:09:20;99393.00;;;17.48;75.09
76128;BME280;64873;50.102;14.434;2023-06-26T02:11:45;99394.66;;;17.54;75.07
76128;BME280;64873;50.102;14.434;2023-06-26T02:14:10;99391.16;;;17.53;74.98
76128;BME280;64873;50.102;14.434;2023-06-26T02:16:37;99387.66;;;17.58;74.48
76128;BME280;64873;50.102;14.434;2023-06-26T02:19:03;99386.03;;;17.57;74.54
76128;BME280;64873;50.102;14.434;2023-06-26T02:21:28;99381.66;;;17.51;74.86
76128;BME280;64873;50.102;14.434;2023-06-26T02:23:53;99388.19;;;17.55;74.62
76128;BME280;64873;50.102;14.434;2023-06-26T02:26:19;99387.97;;;17.62;74.30
76128;BME280;64873;50.102;14.434;2023-06-26T02:28:44;99391.41;;;17.52;74.56
76128;BME280;64873;50.102;14.434;2023-06-26T02:31:09;99392.47;;;17.51;74.73
76128;BME280;64873;50.102;14.434;2023-06-26T02:33:35;99386.56;;;17.54;74.76
76128;BME280;64873;50.102;14.434;2023-06-26T02:36:00;99397.66;;;17.57;74.44
76128;BME280;64873;50.102;14.434;2023-06-26T02:38:26;99393.63;;;17.60;74.62
76128;BME280;64873;50.102;14.434;2023-06-26T02:40:51;99401.75;;;17.60;74.46
76128;BME280;64873;50.102;14.434;2023-06-26T02:43:16;99399.00;;;17.55;74.80
76128;BME280;64873;50.102;14.434;2023-06-26T02:45:42;99398.91;;;17.45;75.27
76128;BME280;64873;50.102;14.434;2023-06-26T02:48:08;99406.06;;;17.24;76.06
76128;BME280;64873;50.102;14.434;2023-06-26T02:50:33;99396.06;;;17.24;76.22
76128;BME280;64873;50.102;14.434;2023-06-26T02:52:58;99392.72;;;17.12;76.58
76128;BME280;64873;50.102;14.434;2023-06-26T02:55:24;99392.66;;;17.07;77.00
76128;BME280;64873;50.102;14.434;2023-06-26T02:57:50;99391.00;;;17.01;77.51
76128;BME280;64873;50.102;14.434;2023-06-26T03:00:16;99397.41;;;16.95;77.63
76128;BME280;64873;50.102;14.434;2023-06-26T03:02:41;99392.88;;;17.00;77.86
76128;BME280;64873;50.102;14.434;2023-06-26T03:05:07;99394.84;;;17.10;77.16
76128;BME280;64873;50.102;14.434;2023-06-26T03:07:33;99393.84;;;16.89;78.02
76128;BME280;64873;50.102;14.434;2023-06-26T03:09:59;99392.19;;;16.88;78.28
76128;BME280;64873;50.102;14.434;2023-06-26T03:12:25;99405.50;;;16.95;77.74
76128;BME280;64873;50.102;14.434;2023-06-26T03:14:50;99398.47;;;16.94;78.17
76128;BME280;64873;50.102;14.434;2023-06-26T03:17:16;99399.47;;;16.88;77.83
76128;BME280;64873;50.102;14.434;2023-06-26T03:19:41;99393.28;;;16.87;77.88
76128;BME280;64873;50.102;14.434;2023-06-26T03:22:07;99392.56;;;16.97;77.66
76128;BME280;64873;50.102;14.434;2023-06-26T03:24:33;99391.88;;;17.12;76.61
76128;BME280;64873;50.102;14.434;2023-06-26T03:26:59;99395.19;;;17.19;76.45
76128;BME280;64873;50.102;14.434;2023-06-26T03:29:25;99390.63;;;17.19;76.24
76128;BME280;64873;50.102;14.434;2023-06-26T03:31:50;99395.25;;;17.24;75.95
76128;BME280;64873;50.102;14.434;2023-06-26T03:34:16;99393.91;;;17.26;75.96
76128;BME280;64873;50.102;14.434;2023-06-26T03:36:41;99387.91;;;17.19;76.31
76128;BME280;64873;50.102;14.434;2023-06-26T03:39:06;99390.63;;;17.19;76.19
76128;BME280;64873;50.102;14.434;2023-06-26T03:41:32;99387.78;;;17.41;75.67
76128;BME280;64873;50.102;14.434;2023-06-26T03:43:57;99385.81;;;17.26;76.07
76128;BME280;64873;50.102;14.434;2023-06-26T03:46:25;99392.91;;;17.38;75.71
76128;BME280;64873;50.102;14.434;2023-06-26T03:48:50;99385.22;;;17.19;76.47
76128;BME280;64873;50.102;14.434;2023-06-26T03:51:16;99393.88;;;17.21;76.33
76128;BME280;64873;50.102;14.434;2023-06-26T03:53:41;99389.53;;;17.20;76.53
76128;BME280;64873;50.102;14.434;2023-06-26T03:56:06;99392.13;;;17.10;76.89
76128;BME280;64873;50.102;14.434;2023-06-26T03:58:32;99390.63;;;17.19;76.91
76128;BME280;64873;50.102;14.434;2023-06-26T04:00:57;99388.78;;;16.98;77.61
76128;BME280;64873;50.102;14.434;2023-06-26T04:03:23;99388.78;;;16.98;77.70
76128;BME280;64873;50.102;14.434;2023-06-26T04:05:49;99388.28;;;17.01;77.79
76128;BME280;64873;50.102;14.434;2023-06-26T04:08:15;99398.63;;;17.09;77.43
76128;BME280;64873;50.102;14.434;2023-06-26T04:10:40;99392.84;;;17.27;76.96
76128;BME280;64873;50.102;14.434;2023-06-26T04:13:05;99391.88;;;17.44;75.76
76128;BME280;64873;50.102;14.434;2023-06-26T04:15:31;99393.56;;;17.50;75.41
76128;BME280;64873;50.102;14.434;2023-06-26T04:17:56;99393.94;;;17.69;74.68
76128;BME280;64873;50.102;14.434;2023-06-26T04:20:22;99390.53;;;17.78;73.91
76128;BME280;64873;50.102;14.434;2023-06-26T04:22:47;99387.34;;;17.87;73.37
76128;BME280;64873;50.102;14.434;2023-06-26T04:25:12;99389.00;;;17.93;72.71
76128;BME280;64873;50.102;14.434;2023-06-26T04:27:38;99376.59;;;18.02;72.62
76128;BME280;64873;50.102;14.434;2023-06-26T04:30:04;99380.44;;;18.11;72.13
76128;BME280;64873;50.102;14.434;2023-06-26T04:32:30;99385.59;;;18.13;72.37
76128;BME280;64873;50.102;14.434;2023-06-26T04:34:55;99386.00;;;18.42;71.96
76128;BME280;64873;50.102;14.434;2023-06-26T04:37:22;99380.47;;;18.21;72.78
76128;BME280;64873;50.102;14.434;2023-06-26T04:39:47;99378.22;;;18.03;73.39
76128;BME280;64873;50.102;14.434;2023-06-26T04:42:12;99389.09;;;18.13;72.98
76128;BME280;64873;50.102;14.434;2023-06-26T04:44:38;99381.16;;;17.91;73.40
76128;BME280;64873;50.102;14.434;2023-06-26T04:47:05;99383.69;;;18.13;72.94
76128;BME280;64873;50.102;14.434;2023-06-26T04:49:31;99381.44;;;17.95;73.31
76128;BME280;64873;50.102;14.434;2023-06-26T04:51:56;99382.03;;;18.02;73.02
76128;BME280;64873;50.102;14.434;2023-06-26T04:54:22;99379.56;;;17.95;72.89
76128;BME280;64873;50.102;14.434;2023-06-26T04:56:48;99387.44;;;18.02;73.31
76128;BME280;64873;50.102;14.434;2023-06-26T04:59:13;99384.78;;;18.12;73.02
76128;BME280;64873;50.102;14.434;2023-06-26T05:01:39;99383.22;;;18.31;72.46
76128;BME280;64873;50.102;14.434;2023-06-26T05:04:06;99376.03;;;17.95;73.68
76128;BME280;64873;50.102;14.434;2023-06-26T05:06:31;99377.72;;;18.11;73.32
76128;BME280;64873;50.102;14.434;2023-06-26T05:08:56;99369.91;;;18.15;73.12
76128;BME280;64873;50.102;14.434;2023-06-26T05:11:22;99364.78;;;18.18;73.17
76128;BME280;64873;50.102;14.434;2023-06-26T05:13:49;99367.25;;;18.25;73.12
76128;BME280;64873;50.102;14.434;2023-06-26T05:16:14;99367.03;;;18.36;72.41
76128;BME280;64873;50.102;14.434;2023-06-26T05:18:40;99367.59;;;18.44;72.39
76128;BME280;64873;50.102;14.434;2023-06-26T05:21:05;99373.28;;;18.57;71.80
76128;BME280;64873;50.102;14.434;2023-06-26T05:23:32;99363.34;;;18.73;71.24
76128;BME280;64873;50.102;14.434;2023-06-26T05:25:59;99369.31;;;18.75;71.09
76128;BME280;64873;50.102;14.434;2023-06-26T05:28:24;99369.31;;;18.75;70.86
76128;BME280;64873;50.102;14.434;2023-06-26T05:30:52;99360.41;;;18.85;70.54
76128;BME280;64873;50.102;14.434;2023-06-26T05:33:18;99360.13;;;18.86;70.38
76128;BME280;64873;50.102;14.434;2023-06-26T05:35:48;99354.75;;;19.07;70.04
76128;BME280;64873;50.102;14.434;2023-06-26T05:38:14;99364.50;;;19.13;69.54
76128;BME280;64873;50.102;14.434;2023-06-26T05:40:40;99360.69;;;19.19;69.42
76128;BME280;64873;50.102;14.434;2023-06-26T05:43:06;99364.75;;;19.37;68.72
76128;BME280;64873;50.102;14.434;2023-06-26T05:45:32;99368.84;;;19.29;68.93
76128;BME280;64873;50.102;14.434;2023-06-26T05:47:57;99358.53;;;19.47;68.60
76128;BME280;64873;50.102;14.434;2023-06-26T05:50:23;99351.44;;;19.51;68.08
76128;BME280;64873;50.102;14.434;2023-06-26T05:52:49;99355.56;;;19.58;68.11
76128;BME280;64873;50.102;14.434;2023-06-26T05:55:14;99347.66;;;19.67;67.59
76128;BME280;64873;50.102;14.434;2023-06-26T05:57:41;99349.78;;;19.80;67.20
76128;BME280;64873;50.102;14.434;2023-06-26T06:00:07;99351.56;;;20.20;65.86
76128;BME280;64873;50.102;14.434;2023-06-26T06:02:36;99358.25;;;20.38;65.59
76128;BME280;64873;50.102;14.434;2023-06-26T06:05:02;99352.00;;;20.48;65.41
76128;BME280;64873;50.102;14.434;2023-06-26T06:07:28;99356.63;;;20.42;64.78
76128;BME280;64873;50.102;14.434;2023-06-26T06:09:53;99353.31;;;20.56;63.73
76128;BME280;64873;50.102;14.434;2023-06-26T06:12:18;99351.16;;;20.53;63.53
76128;BME280;64873;50.102;14.434;2023-06-26T06:14:44;99360.00;;;20.73;63.03
76128;BME280;64873;50.102;14.434;2023-06-26T06:17:09;99357.25;;;21.18;61.80
76128;BME280;64873;50.102;14.434;2023-06-26T06:19:35;99350.44;;;21.49;60.52
76128;BME280;64873;50.102;14.434;2023-06-26T06:22:00;99343.44;;;21.72;60.04
76128;BME280;64873;50.102;14.434;2023-06-26T06:24:26;99343.31;;;22.06;58.47
76128;BME280;64873;50.102;14.434;2023-06-26T06:26:51;99347.38;;;21.85;59.00
76128;BME280;64873;50.102;14.434;2023-06-26T06:29:16;99339.75;;;21.87;59.79
76128;BME280;64873;50.102;14.434;2023-06-26T06:31:44;99337.84;;;22.12;57.40
76128;BME280;64873;50.102;14.434;2023-06-26T06:34:09;99345.97;;;21.64;58.96
76128;BME280;64873;50.102;14.434;2023-06-26T06:36:34;99338.91;;;22.34;57.33
76128;BME280;64873;50.102;14.434;2023-06-26T06:39:00;99335.69;;;22.89;55.82
76128;BME280;64873;50.102;14.434;2023-06-26T06:41:25;99328.44;;;23.17;54.50
76128;BME280;64873;50.102;14.434;2023-06-26T06:43:51;99331.84;;;23.41;54.17
76128;BME280;64873;50.102;14.434;2023-06-26T06:46:16;99334.63;;;23.83;52.74
76128;BME280;64873;50.102;14.434;2023-06-26T06:48:42;99327.84;;;24.22;51.55
76128;BME280;64873;50.102;14.434;2023-06-26T06:51:07;99328.72;;;24.44;51.07
76128;BME280;64873;50.102;14.434;2023-06-26T06:53:33;99329.16;;;23.23;53.70
76128;BME280;64873;50.102;14.434;2023-06-26T06:55:58;99326.28;;;23.47;52.51
76128;BME280;64873;50.102;14.434;2023-06-26T06:58:24;99324.31;;;23.80;51.96
76128;BME280;64873;50.102;14.434;2023-06-26T07:00:49;99323.59;;;24.43;50.37
76128;BME280;64873;50.102;14.434;2023-06-26T07:03:16;99324.41;;;24.02;51.17
76128;BME280;64873;50.102;14.434;2023-06-26T07:05:41;99324.38;;;23.61;52.24
76128;BME280;64873;50.102;14.434;2023-06-26T07:08:07;99323.81;;;24.05;51.36
76128;BME280;64873;50.102;14.434;2023-06-26T07:10:33;99320.91;;;23.88;51.36
76128;BME280;64873;50.102;14.434;2023-06-26T07:12:58;99321.47;;;23.57;52.05
76128;BME280;64873;50.102;14.434;2023-06-26T07:15:24;99314.78;;;24.32;50.33
76128;BME280;64873;50.102;14.434;2023-06-26T07:17:49;99307.47;;;24.55;50.08
76128;BME280;64873;50.102;14.434;2023-06-26T07:20:15;99320.16;;;24.73;49.43
76128;BME280;64873;50.102;14.434;2023-06-26T07:22:41;99307.84;;;24.85;49.46
76128;BME280;64873;50.102;14.434;2023-06-26T07:25:07;99306.19;;;24.75;49.34
76128;BME280;64873;50.102;14.434;2023-06-26T07:27:37;99302.00;;;24.55;48.21
76128;BME280;64873;50.102;14.434;2023-06-26T07:30:03;99304.16;;;24.31;48.13
76128;BME280;64873;50.102;14.434;2023-06-26T07:32:28;99302.38;;;24.62;48.30
76128;BME280;64873;50.102;14.434;2023-06-26T07:34:54;99305.97;;;24.49;48.23
76128;BME280;64873;50.102;14.434;2023-06-26T07:37:19;99300.03;;;24.33;48.47
76128;BME280;64873;50.102;14.434;2023-06-26T07:39:45;99301.03;;;24.51;47.89
76128;BME280;64873;50.102;14.434;2023-06-26T07:42:10;99295.63;;;24.60;47.65
76128;BME280;64873;50.102;14.434;2023-06-26T07:44:35;99304.69;;;24.69;47.36
76128;BME280;64873;50.102;14.434;2023-06-26T07:47:01;99296.34;;;24.74;47.11
76128;BME280;64873;50.102;14.434;2023-06-26T07:49:26;99307.97;;;24.80;47.27
76128;BME280;64873;50.102;14.434;2023-06-26T07:51:52;99299.75;;;25.16;45.91
76128;BME280;64873;50.102;14.434;2023-06-26T07:54:17;99301.19;;;25.75;44.81
76128;BME280;64873;50.102;14.434;2023-06-26T07:56:55;99300.00;;;25.99;44.15
76128;BME280;64873;50.102;14.434;2023-06-26T07:59:22;99293.34;;;25.91;44.59
76128;BME280;64873;50.102;14.434;2023-06-26T08:01:48;99296.97;;;26.09;44.23
76128;BME280;64873;50.102;14.434;2023-06-26T08:04:14;99297.56;;;25.97;44.78
76128;BME280;64873;50.102;14.434;2023-06-26T08:06:39;99298.56;;;25.70;45.58
76128;BME280;64873;50.102;14.434;2023-06-26T08:09:06;99294.56;;;25.37;46.24
76128;BME280;64873;50.102;14.434;2023-06-26T08:11:33;99298.56;;;25.08;47.09
76128;BME280;64873;50.102;14.434;2023-06-26T08:13:59;99293.78;;;25.14;47.03
76128;BME280;64873;50.102;14.434;2023-06-26T08:16:24;99302.09;;;25.31;46.84
76128;BME280;64873;50.102;14.434;2023-06-26T08:18:50;99294.56;;;25.37;46.86
76128;BME280;64873;50.102;14.434;2023-06-26T08:21:16;99290.81;;;25.33;47.15
76128;BME280;64873;50.102;14.434;2023-06-26T08:23:41;99292.31;;;25.39;47.19
76128;BME280;64873;50.102;14.434;2023-06-26T08:26:06;99291.69;;;25.42;47.14
76128;BME280;64873;50.102;14.434;2023-06-26T08:28:32;99283.59;;;25.37;46.65
76128;BME280;64873;50.102;14.434;2023-06-26T08:30:57;99284.88;;;25.31;47.35
76128;BME280;64873;50.102;14.434;2023-06-26T08:33:22;99284.63;;;25.81;46.25
76128;BME280;64873;50.102;14.434;2023-06-26T08:35:48;99278.66;;;25.39;46.36
76128;BME280;64873;50.102;14.434;2023-06-26T08:38:13;99278.28;;;25.71;46.90
76128;BME280;64873;50.102;14.434;2023-06-26T08:40:39;99274.66;;;25.45;44.53
76128;BME280;64873;50.102;14.434;2023-06-26T08:43:04;99275.69;;;25.66;45.16
76128;BME280;64873;50.102;14.434;2023-06-26T08:45:30;99281.91;;;25.81;46.36
76128;BME280;64873;50.102;14.434;2023-06-26T08:48:00;99274.97;;;25.83;45.74
76128;BME280;64873;50.102;14.434;2023-06-26T08:50:28;99269.69;;;25.87;45.96
76128;BME280;64873;50.102;14.434;2023-06-26T08:55:43;99262.94;;;25.93;45.10
76128;BME280;64873;50.102;14.434;2023-06-26T08:58:10;99265.22;;;26.25;45.00
76128;BME280;64873;50.102;14.434;2023-06-26T09:00:36;99256.88;;;26.48;45.14
76128;BME280;64873;50.102;14.434;2023-06-26T09:03:03;99259.75;;;26.25;44.98
76128;BME280;64873;50.102;14.434;2023-06-26T09:05:29;99260.66;;;25.95;45.25
76128;BME280;64873;50.102;14.434;2023-06-26T09:07:57;99265.00;;;25.96;45.47
76128;BME280;64873;50.102;14.434;2023-06-26T09:10:23;99257.13;;;25.86;46.00
76128;BME280;64873;50.102;14.434;2023-06-26T09:12:49;99254.53;;;25.81;46.00
76128;BME280;64873;50.102;14.434;2023-06-26T09:15:15;99254.53;;;25.81;46.02
76128;BME280;64873;50.102;14.434;2023-06-26T09:17:42;99243.75;;;25.53;46.00
76128;BME280;64873;50.102;14.434;2023-06-26T09:20:08;99242.84;;;25.66;44.87
76128;BME280;64873;50.102;14.434;2023-06-26T09:22:36;99240.19;;;25.84;45.20
76128;BME280;64873;50.102;14.434;2023-06-26T09:25:04;99240.69;;;25.86;45.84
76128;BME280;64873;50.102;14.434;2023-06-26T09:27:30;99239.09;;;26.02;45.29
76128;BME280;64873;50.102;14.434;2023-06-26T09:29:56;99236.69;;;26.09;45.97
76128;BME280;64873;50.102;14.434;2023-06-26T09:32:26;99234.59;;;26.15;45.31
76128;BME280;64873;50.102;14.434;2023-06-26T09:34:53;99230.38;;;26.09;43.90
76128;BME280;64873;50.102;14.434;2023-06-26T09:37:21;99224.44;;;25.98;43.86
76128;BME280;64873;50.102;14.434;2023-06-26T09:39:46;99223.00;;;26.09;44.30
76128;BME280;64873;50.102;14.434;2023-06-26T09:42:13;99217.34;;;26.05;42.07
76128;BME280;64873;50.102;14.434;2023-06-26T09:44:46;99213.66;;;26.10;45.32
76128;BME280;64873;50.102;14.434;2023-06-26T09:47:12;99219.78;;;26.24;45.73
76128;BME280;64873;50.102;14.434;2023-06-26T09:49:43;99213.50;;;26.15;44.92
76128;BME280;64873;50.102;14.434;2023-06-26T09:52:09;99205.28;;;26.15;43.12
76128;BME280;64873;50.102;14.434;2023-06-26T09:54:35;99206.22;;;26.19;41.03
76128;BME280;64873;50.102;14.434;2023-06-26T09:57:17;99198.84;;;26.28;41.59
76128;BME280;64873;50.102;14.434;2023-06-26T09:59:44;99204.31;;;26.11;40.75
76128;BME280;64873;50.102;14.434;2023-06-26T10:02:13;99189.94;;;26.31;43.89
76128;BME280;64873;50.102;14.434;2023-06-26T10:04:38;99193.34;;;26.37;43.09
76128;BME280;64873;50.102;14.434;2023-06-26T10:07:11;99188.34;;;26.39;40.67
76128;BME280;64873;50.102;14.434;2023-06-26T10:09:41;99188.53;;;26.43;39.53
76128;BME280;64873;50.102;14.434;2023-06-26T10:12:11;99185.47;;;26.53;39.02
76128;BME280;64873;50.102;14.434;2023-06-26T10:14:39;99176.25;;;26.66;40.87
76128;BME280;64873;50.102;14.434;2023-06-26T10:17:13;99176.53;;;26.73;43.91
76128;BME280;64873;50.102;14.434;2023-06-26T10:19:43;99168.97;;;26.70;40.28
76128;BME280;64873;50.102;14.434;2023-06-26T10:22:09;99169.16;;;26.65;43.38
76128;BME280;64873;50.102;14.434;2023-06-26T10:24:40;99170.47;;;26.42;41.43
76128;BME280;64873;50.102;14.434;2023-06-26T10:27:16;99160.28;;;26.60;42.26
76128;BME280;64873;50.102;14.434;2023-06-26T10:29:44;99159.31;;;26.55;41.73
76128;BME280;64873;50.102;14.434;2023-06-26T10:32:12;99151.75;;;26.44;40.33
76128;BME280;64873;50.102;14.434;2023-06-26T10:34:38;99156.53;;;26.73;40.28
76128;BME280;64873;50.102;14.434;2023-06-26T10:37:04;99155.22;;;26.88;40.17
76128;BME280;64873;50.102;14.434;2023-06-26T10:39:53;99147.19;;;26.82;40.90
76128;BME280;64873;50.102;14.434;2023-06-26T10:42:33;99156.88;;;26.71;40.29
76128;BME280;64873;50.102;14.434;2023-06-26T10:45:15;99156.94;;;27.01;39.25
76128;BME280;64873;50.102;14.434;2023-06-26T10:47:42;99153.56;;;27.04;38.67
76128;BME280;64873;50.102;14.434;2023-06-26T10:50:27;99154.00;;;27.53;38.48
76128;BME280;64873;50.102;14.434;2023-06-26T10:58:47;99130.84;;;27.62;38.09
76128;BME280;64873;50.102;14.434;2023-06-26T11:01:20;99128.13;;;27.54;38.87
76128;BME280;64873;50.102;14.434;2023-06-26T11:04:05;99129.09;;;27.58;39.15
76128;BME280;64873;50.102;14.434;2023-06-26T11:06:32;99118.09;;;27.58;37.15
76128;BME280;64873;50.102;14.434;2023-06-26T11:14:13;99112.28;;;28.22;35.76
76128;BME280;64873;50.102;14.434;2023-06-26T11:16:42;99122.00;;;28.40;37.15
76128;BME280;64873;50.102;14.434;2023-06-26T11:19:09;99120.78;;;28.29;35.71
76128;BME280;64873;50.102;14.434;2023-06-26T11:21:34;99121.50;;;28.05;36.93
76128;BME280;64873;50.102;14.434;2023-06-26T11:24:02;99113.69;;;27.66;39.26
76128;BME280;64873;50.102;14.434;2023-06-26T11:26:28;99113.00;;;27.48;36.72
76128;BME280;64873;50.102;14.434;2023-06-26T11:28:55;99106.44;;;27.61;36.85
76128;BME280;64873;50.102;14.434;2023-06-26T11:31:30;99111.84;;;27.28;37.30
76128;BME280;64873;50.102;14.434;2023-06-26T11:33:57;99109.41;;;27.56;37.59
76128;BME280;64873;50.102;14.434;2023-06-26T11:36:24;99104.75;;;27.77;35.99
76128;BME280;64873;50.102;14.434;2023-06-26T11:38:57;99099.00;;;27.70;37.96
76128;BME280;64873;50.102;14.434;2023-06-26T11:41:25;99080.63;;;27.62;37.59
76128;BME280;64873;50.102;14.434;2023-06-26T11:43:52;99098.59;;;27.80;36.02
76128;BME280;64873;50.102;14.434;2023-06-26T11:46:19;99106.63;;;27.85;38.58
76128;BME280;64873;50.102;14.434;2023-06-26T11:48:45;99102.75;;;27.86;36.67
76128;BME280;64873;50.102;14.434;2023-06-26T11:51:13;99093.06;;;28.22;34.65
76128;BME280;64873;50.102;14.434;2023-06-26T11:53:40;99091.66;;;28.49;35.14
76128;BME280;64873;50.102;14.434;2023-06-26T11:56:10;99093.13;;;28.34;35.59
76128;BME280;64873;50.102;14.434;2023-06-26T11:58:55;99090.38;;;28.34;33.83
76128;BME280;64873;50.102;14.434;2023-06-26T12:01:21;99095.25;;;28.62;33.40
76128;BME280;64873;50.102;14.434;2023-06-26T12:03:48;99090.66;;;28.66;35.44
76128;BME280;64873;50.102;14.434;2023-06-26T12:06:14;99089.41;;;28.30;33.49
76128;BME280;64873;50.102;14.434;2023-06-26T12:08:40;99076.50;;;28.43;34.15
76128;BME280;64873;50.102;14.434;2023-06-26T12:11:06;99081.66;;;28.11;35.12
76128;BME280;64873;50.102;14.434;2023-06-26T12:13:32;99070.97;;;28.64;35.34
76128;BME280;64873;50.102;14.434;2023-06-26T12:15:57;99075.47;;;28.35;36.34
76128;BME280;64873;50.102;14.434;2023-06-26T12:18:23;99072.91;;;28.30;34.44
76128;BME280;64873;50.102;14.434;2023-06-26T12:20:51;99074.13;;;28.41;34.02
76128;BME280;64873;50.102;14.434;2023-06-26T12:23:17;99068.75;;;28.45;37.51
76128;BME280;64873;50.102;14.434;2023-06-26T12:25:42;99060.81;;;28.43;33.71
76128;BME280;64873;50.102;14.434;2023-06-26T12:28:18;99065.66;;;28.59;36.48
76128;BME280;64873;50.102;14.434;2023-06-26T12:30:54;99056.97;;;28.57;34.80
76128;BME280;64873;50.102;14.434;2023-06-26T12:33:32;99051.00;;;28.09;35.75
76128;BME280;64873;50.102;14.434;2023-06-26T12:35:58;99058.97;;;28.35;39.17
76128;BME280;64873;50.102;14.434;2023-06-26T12:38:23;99053.06;;;28.46;37.17
76128;BME280;64873;50.102;14.434;2023-06-26T12:40:48;99050.28;;;28.33;36.52
76128;BME280;64873;50.102;14.434;2023-06-26T12:43:25;99044.53;;;28.26;36.19
76128;BME280;64873;50.102;14.434;2023-06-26T12:45:54;99043.00;;;28.50;36.54
76128;BME280;64873;50.102;14.434;2023-06-26T12:48:20;99040.00;;;28.09;36.85
76128;BME280;64873;50.102;14.434;2023-06-26T12:50:45;99036.69;;;28.16;36.28
76128;BME280;64873;50.102;14.434;2023-06-26T12:53:11;99037.38;;;28.25;39.88
76128;BME280;64873;50.102;14.434;2023-06-26T12:55:36;99026.97;;;28.19;35.51
76128;BME280;64873;50.102;14.434;2023-06-26T12:58:02;99026.72;;;28.45;37.36
76128;BME280;64873;50.102;14.434;2023-06-26T13:00:27;99029.25;;;28.62;35.35
76128;BME280;64873;50.102;14.434;2023-06-26T13:02:53;99026.97;;;28.88;35.23
76128;BME280;64873;50.102;14.434;2023-06-26T13:05:19;99026.72;;;28.81;34.00
76128;BME280;64873;50.102;14.434;2023-06-26T13:07:44;99023.41;;;28.76;35.52
76128;BME280;64873;50.102;14.434;2023-06-26T13:10:10;99012.06;;;28.77;35.19
76128;BME280;64873;50.102;14.434;2023-06-26T13:12:35;99021.44;;;28.88;36.27
76128;BME280;64873;50.102;14.434;2023-06-26T13:15:00;99005.38;;;28.90;32.98